sensor_id;sensor_type;location;lat;lon;timestamp;P1;durP1;ratioP1;P2;durP2;ratioP2
53971;SDS011;40530;53.062;6.078;2023-06-04T00:02:24;9.75;;;3.40;;
53971;SDS011;40530;53.062;6.078;2023-06-04T00:04:50;6.15;;;2.53;;
53971;SDS011;40530;53.062;6.078;2023-06-04T00:07:16;9.43;;;3.28;;
53971;SDS011;40530;53.062;6.078;2023-06-04T00:09:42;8.02;;;3.33;;
53971;SDS011;40530;53.062;6.078;2023-06-04T00:12:11;7.38;;;2.90;;
53971;SDS011;40530;53.062;6.078;2023-06-04T00:14:37;11.63;;;2.75;;
53971;SDS011;40530;53.062;6.078;2023-06-04T00:17:03;10.52;;;2.90;;
53971;SDS011;40530;53.062;6.078;2023-06-04T00:19:29;12.95;;;3.22;;
53971;SDS011;40530;53.062;6.078;2023-06-04T00:21:55;9.35;;;3.13;;
53971;SDS011;40530;53.062;6.078;2023-06-04T00:24:21;12.23;;;3.42;;
53971;SDS011;40530;53.062;6.078;2023-06-04T00:26:47;8.07;;;2.90;;
53971;SDS011;40530;53.062;6.078;2023-06-04T00:29:13;5.95;;;2.58;;
53971;SDS011;40530;53.062;6.078;2023-06-04T00:31:40;12.95;;;4.03;;
53971;SDS011;40530;53.062;6.078;2023-06-04T00:34:06;10.98;;;3.97;;
53971;SDS011;40530;53.062;6.078;2023-06-04T00:36:32;7.63;;;2.90;;
53971;SDS011;40530;53.062;6.078;2023-06-04T00:38:58;10.48;;;2.72;;
53971;SDS011;40530;53.062;6.078;2023-06-04T00:41:24;10.40;;;3.55;;
53971;SDS011;40530;53.062;6.078;2023-06-04T00:43:51;10.07;;;2.95;;
53971;SDS011;40530;53.062;6.078;2023-06-04T00:46:27;7.07;;;3.00;;
53971;SDS011;40530;53.062;6.078;2023-06-04T00:48:53;13.65;;;3.72;;
53971;SDS011;40530;53.062;6.078;2023-06-04T00:51:20;13.35;;;3.95;;
53971;SDS011;40530;53.062;6.078;2023-06-04T00:53:46;7.55;;;3.03;;
53971;SDS011;40530;53.062;6.078;2023-06-04T00:56:12;11.35;;;3.35;;
53971;SDS011;40530;53.062;6.078;2023-06-04T00:58:39;10.88;;;3.28;;
53971;SDS011;40530;53.062;6.078;2023-06-04T01:01:07;11.35;;;2.83;;
53971;SDS011;40530;53.062;6.078;2023-06-04T01:03:37;11.25;;;3.05;;
53971;SDS011;40530;53.062;6.078;2023-06-04T01:06:11;8.98;;;3.15;;
53971;SDS011;40530;53.062;6.078;2023-06-04T01:08:38;8.68;;;3.15;;
53971;SDS011;40530;53.062;6.078;2023-06-04T01:11:08;8.43;;;2.88;;
53971;SDS011;40530;53.062;6.078;2023-06-04T01:13:34;8.45;;;3.25;;
53971;SDS011;40530;53.062;6.078;2023-06-04T01:16:00;9.07;;;2.53;;
53971;SDS011;40530;53.062;6.078;2023-06-04T01:18:27;11.35;;;3.83;;
53971;SDS011;40530;53.062;6.078;2023-06-04T01:21:05;8.20;;;3.08;;
53971;SDS011;40530;53.062;6.078;2023-06-04T01:23:49;11.75;;;2.90;;
53971;SDS011;40530;53.062;6.078;2023-06-04T01:26:32;8.75;;;3.10;;
53971;SDS011;40530;53.062;6.078;2023-06-04T01:28:58;7.15;;;3.00;;
53971;SDS011;40530;53.062;6.078;2023-06-04T01:31:26;8.55;;;4.00;;
53971;SDS011;40530;53.062;6.078;2023-06-04T01:33:53;10.95;;;2.75;;
53971;SDS011;40530;53.062;6.078;2023-06-04T01:36:20;7.38;;;3.33;;
53971;SDS011;40530;53.062;6.078;2023-06-04T01:38:47;7.10;;;3.50;;
53971;SDS011;40530;53.062;6.078;2023-06-04T01:41:13;8.77;;;3.33;;
53971;SDS011;40530;53.062;6.078;2023-06-04T01:43:40;10.02;;;3.25;;
53971;SDS011;40530;53.062;6.078;2023-06-04T01:46:06;12.45;;;3.80;;
53971;SDS011;40530;53.062;6.078;2023-06-04T01:48:32;9.35;;;2.90;;
53971;SDS011;40530;53.062;6.078;2023-06-04T01:50:58;9.98;;;3.10;;
53971;SDS011;40530;53.062;6.078;2023-06-04T01:53:25;8.20;;;3.20;;
53971;SDS011;40530;53.062;6.078;2023-06-04T01:55:51;9.63;;;3.00;;
53971;SDS011;40530;53.062;6.078;2023-06-04T01:58:17;9.25;;;3.63;;
53971;SDS011;40530;53.062;6.078;2023-06-04T02:00:48;11.60;;;3.78;;
53971;SDS011;40530;53.062;6.078;2023-06-04T02:03:14;8.43;;;3.22;;
53971;SDS011;40530;53.062;6.078;2023-06-04T02:05:41;8.75;;;3.00;;
53971;SDS011;40530;53.062;6.078;2023-06-04T02:08:09;10.85;;;3.65;;
53971;SDS011;40530;53.062;6.078;2023-06-04T02:10:36;7.10;;;3.30;;
53971;SDS011;40530;53.062;6.078;2023-06-04T02:13:02;7.47;;;2.83;;
53971;SDS011;40530;53.062;6.078;2023-06-04T02:15:29;11.55;;;4.47;;
53971;SDS011;40530;53.062;6.078;2023-06-04T02:17:59;8.80;;;2.85;;
53971;SDS011;40530;53.062;6.078;2023-06-04T02:20:27;8.43;;;3.03;;
53971;SDS011;40530;53.062;6.078;2023-06-04T02:22:57;7.93;;;3.40;;
53971;SDS011;40530;53.062;6.078;2023-06-04T02:25:23;6.85;;;2.58;;
53971;SDS011;40530;53.062;6.078;2023-06-04T02:27:49;9.55;;;2.67;;
53971;SDS011;40530;53.062;6.078;2023-06-04T02:30:15;7.22;;;3.13;;
53971;SDS011;40530;53.062;6.078;2023-06-04T02:32:42;5.38;;;2.72;;
53971;SDS011;40530;53.062;6.078;2023-06-04T02:35:09;9.98;;;3.10;;
53971;SDS011;40530;53.062;6.078;2023-06-04T02:37:36;13.57;;;3.08;;
53971;SDS011;40530;53.062;6.078;2023-06-04T02:40:02;9.25;;;3.20;;
53971;SDS011;40530;53.062;6.078;2023-06-04T02:42:29;9.95;;;3.30;;
53971;SDS011;40530;53.062;6.078;2023-06-04T02:44:55;7.70;;;3.17;;
53971;SDS011;40530;53.062;6.078;2023-06-04T02:47:21;7.70;;;3.10;;
53971;SDS011;40530;53.062;6.078;2023-06-04T02:49:47;7.43;;;3.67;;
53971;SDS011;40530;53.062;6.078;2023-06-04T02:52:13;9.00;;;3.30;;
53971;SDS011;40530;53.062;6.078;2023-06-04T02:54:39;9.52;;;3.58;;
53971;SDS011;40530;53.062;6.078;2023-06-04T02:57:05;6.47;;;3.10;;
53971;SDS011;40530;53.062;6.078;2023-06-04T02:59:31;6.85;;;2.97;;
53971;SDS011;40530;53.062;6.078;2023-06-04T03:01:57;10.43;;;3.53;;
53971;SDS011;40530;53.062;6.078;2023-06-04T03:04:23;10.65;;;3.88;;
53971;SDS011;40530;53.062;6.078;2023-06-04T03:06:50;8.75;;;3.00;;
53971;SDS011;40530;53.062;6.078;2023-06-04T03:09:22;12.07;;;4.30;;
53971;SDS011;40530;53.062;6.078;2023-06-04T03:11:48;7.07;;;2.95;;
53971;SDS011;40530;53.062;6.078;2023-06-04T03:14:14;12.27;;;4.20;;
53971;SDS011;40530;53.062;6.078;2023-06-04T03:16:41;9.52;;;3.47;;
53971;SDS011;40530;53.062;6.078;2023-06-04T03:19:07;8.80;;;3.22;;
53971;SDS011;40530;53.062;6.078;2023-06-04T03:21:33;22.60;;;7.28;;
53971;SDS011;40530;53.062;6.078;2023-06-04T03:23:59;22.67;;;10.68;;
53971;SDS011;40530;53.062;6.078;2023-06-04T03:26:25;28.95;;;15.85;;
53971;SDS011;40530;53.062;6.078;2023-06-04T03:28:52;11.63;;;5.07;;
53971;SDS011;40530;53.062;6.078;2023-06-04T03:31:18;8.27;;;3.20;;
53971;SDS011;40530;53.062;6.078;2023-06-04T03:33:44;8.80;;;2.83;;
53971;SDS011;40530;53.062;6.078;2023-06-04T03:36:10;6.70;;;3.65;;
53971;SDS011;40530;53.062;6.078;2023-06-04T03:38:36;10.70;;;4.05;;
53971;SDS011;40530;53.062;6.078;2023-06-04T03:41:02;7.32;;;3.08;;
53971;SDS011;40530;53.062;6.078;2023-06-04T03:43:28;10.07;;;3.80;;
53971;SDS011;40530;53.062;6.078;2023-06-04T03:45:55;10.07;;;3.25;;
53971;SDS011;40530;53.062;6.078;2023-06-04T03:48:21;7.85;;;3.17;;
53971;SDS011;40530;53.062;6.078;2023-06-04T03:50:46;11.02;;;3.72;;
53971;SDS011;40530;53.062;6.078;2023-06-04T03:53:14;8.02;;;3.20;;
53971;SDS011;40530;53.062;6.078;2023-06-04T03:55:40;6.68;;;3.67;;
53971;SDS011;40530;53.062;6.078;2023-06-04T03:58:06;5.28;;;3.10;;
53971;SDS011;40530;53.062;6.078;2023-06-04T04:00:34;5.93;;;3.80;;
53971;SDS011;40530;53.062;6.078;2023-06-04T04:03:00;12.48;;;3.90;;
53971;SDS011;40530;53.062;6.078;2023-06-04T04:05:27;15.80;;;7.15;;
53971;SDS011;40530;53.062;6.078;2023-06-04T04:07:54;20.00;;;7.30;;
53971;SDS011;40530;53.062;6.078;2023-06-04T04:10:20;14.13;;;5.63;;
53971;SDS011;40530;53.062;6.078;2023-06-04T04:12:46;11.30;;;5.13;;
53971;SDS011;40530;53.062;6.078;2023-06-04T04:15:12;18.38;;;3.72;;
53971;SDS011;40530;53.062;6.078;2023-06-04T04:17:38;8.45;;;3.70;;
53971;SDS011;40530;53.062;6.078;2023-06-04T04:20:04;9.90;;;3.55;;
53971;SDS011;40530;53.062;6.078;2023-06-04T04:22:30;8.93;;;4.03;;
53971;SDS011;40530;53.062;6.078;2023-06-04T04:24:58;15.23;;;4.13;;
53971;SDS011;40530;53.062;6.078;2023-06-04T04:27:24;12.38;;;4.25;;
53971;SDS011;40530;53.062;6.078;2023-06-04T04:29:50;14.77;;;3.80;;
53971;SDS011;40530;53.062;6.078;2023-06-04T04:32:20;12.40;;;4.32;;
53971;SDS011;40530;53.062;6.078;2023-06-04T04:34:51;11.40;;;4.60;;
53971;SDS011;40530;53.062;6.078;2023-06-04T04:37:17;9.13;;;4.32;;
53971;SDS011;40530;53.062;6.078;2023-06-04T04:39:46;14.30;;;4.40;;
53971;SDS011;40530;53.062;6.078;2023-06-04T04:42:12;13.57;;;4.80;;
53971;SDS011;40530;53.062;6.078;2023-06-04T04:44:38;11.52;;;4.72;;
53971;SDS011;40530;53.062;6.078;2023-06-04T04:47:04;23.27;;;10.57;;
53971;SDS011;40530;53.062;6.078;2023-06-04T04:49:30;18.17;;;8.48;;
53971;SDS011;40530;53.062;6.078;2023-06-04T04:51:56;14.43;;;5.70;;
53971;SDS011;40530;53.062;6.078;2023-06-04T04:54:22;9.88;;;4.80;;
53971;SDS011;40530;53.062;6.078;2023-06-04T04:56:48;11.00;;;4.93;;
53971;SDS011;40530;53.062;6.078;2023-06-04T04:59:17;8.45;;;3.75;;
53971;SDS011;40530;53.062;6.078;2023-06-04T05:01:43;10.93;;;5.55;;
53971;SDS011;40530;53.062;6.078;2023-06-04T05:04:09;13.02;;;5.70;;
53971;SDS011;40530;53.062;6.078;2023-06-04T05:06:35;12.50;;;4.95;;
53971;SDS011;40530;53.062;6.078;2023-06-04T05:09:01;10.73;;;5.15;;
53971;SDS011;40530;53.062;6.078;2023-06-04T05:11:27;15.70;;;5.38;;
53971;SDS011;40530;53.062;6.078;2023-06-04T05:13:53;14.98;;;6.07;;
53971;SDS011;40530;53.062;6.078;2023-06-04T05:16:19;12.60;;;5.13;;
53971;SDS011;40530;53.062;6.078;2023-06-04T05:18:45;9.18;;;4.72;;
53971;SDS011;40530;53.062;6.078;2023-06-04T05:21:11;10.20;;;5.00;;
53971;SDS011;40530;53.062;6.078;2023-06-04T05:23:38;10.75;;;4.57;;
53971;SDS011;40530;53.062;6.078;2023-06-04T05:26:05;11.38;;;5.32;;
53971;SDS011;40530;53.062;6.078;2023-06-04T05:28:31;15.40;;;5.22;;
53971;SDS011;40530;53.062;6.078;2023-06-04T05:30:58;7.35;;;4.15;;
53971;SDS011;40530;53.062;6.078;2023-06-04T05:33:28;9.85;;;4.28;;
53971;SDS011;40530;53.062;6.078;2023-06-04T05:35:55;14.63;;;5.05;;
53971;SDS011;40530;53.062;6.078;2023-06-04T05:38:25;16.63;;;6.60;;
53971;SDS011;40530;53.062;6.078;2023-06-04T05:40:51;11.30;;;4.80;;
53971;SDS011;40530;53.062;6.078;2023-06-04T05:43:17;14.40;;;5.95;;
53971;SDS011;40530;53.062;6.078;2023-06-04T05:45:43;9.60;;;6.03;;
53971;SDS011;40530;53.062;6.078;2023-06-04T05:48:10;13.93;;;6.30;;
53971;SDS011;40530;53.062;6.078;2023-06-04T05:50:36;13.68;;;5.35;;
53971;SDS011;40530;53.062;6.078;2023-06-04T05:53:02;13.40;;;5.05;;
53971;SDS011;40530;53.062;6.078;2023-06-04T05:55:28;12.95;;;5.00;;
53971;SDS011;40530;53.062;6.078;2023-06-04T05:57:55;18.55;;;5.07;;
53971;SDS011;40530;53.062;6.078;2023-06-04T06:00:21;10.70;;;5.18;;
53971;SDS011;40530;53.062;6.078;2023-06-04T06:02:49;11.07;;;4.32;;
53971;SDS011;40530;53.062;6.078;2023-06-04T06:05:15;9.40;;;4.50;;
53971;SDS011;40530;53.062;6.078;2023-06-04T06:07:41;8.85;;;4.40;;
53971;SDS011;40530;53.062;6.078;2023-06-04T06:10:07;14.45;;;5.32;;
53971;SDS011;40530;53.062;6.078;2023-06-04T06:12:33;17.17;;;4.03;;
53971;SDS011;40530;53.062;6.078;2023-06-04T06:15:00;15.05;;;4.85;;
53971;SDS011;40530;53.062;6.078;2023-06-04T06:17:26;11.98;;;4.75;;
53971;SDS011;40530;53.062;6.078;2023-06-04T06:19:52;11.90;;;4.65;;
53971;SDS011;40530;53.062;6.078;2023-06-04T06:22:18;9.82;;;4.80;;
53971;SDS011;40530;53.062;6.078;2023-06-04T06:24:44;13.75;;;4.45;;
53971;SDS011;40530;53.062;6.078;2023-06-04T06:27:13;15.20;;;3.83;;
53971;SDS011;40530;53.062;6.078;2023-06-04T06:29:40;14.73;;;4.47;;
53971;SDS011;40530;53.062;6.078;2023-06-04T06:32:06;10.77;;;3.55;;
53971;SDS011;40530;53.062;6.078;2023-06-04T06:34:32;9.60;;;2.60;;
53971;SDS011;40530;53.062;6.078;2023-06-04T06:36:58;9.70;;;3.40;;
53971;SDS011;40530;53.062;6.078;2023-06-04T06:39:24;11.93;;;3.40;;
53971;SDS011;40530;53.062;6.078;2023-06-04T06:41:51;11.73;;;2.60;;
53971;SDS011;40530;53.062;6.078;2023-06-04T06:44:17;11.05;;;3.38;;
53971;SDS011;40530;53.062;6.078;2023-06-04T06:46:43;12.48;;;3.85;;
53971;SDS011;40530;53.062;6.078;2023-06-04T06:49:09;13.18;;;3.28;;
53971;SDS011;40530;53.062;6.078;2023-06-04T06:51:35;9.00;;;3.00;;
53971;SDS011;40530;53.062;6.078;2023-06-04T06:54:01;11.82;;;3.10;;
53971;SDS011;40530;53.062;6.078;2023-06-04T06:56:27;7.18;;;2.65;;
53971;SDS011;40530;53.062;6.078;2023-06-04T06:58:53;4.90;;;1.98;;
53971;SDS011;40530;53.062;6.078;2023-06-04T07:01:19;7.07;;;2.17;;
53971;SDS011;40530;53.062;6.078;2023-06-04T07:03:46;8.45;;;3.20;;
53971;SDS011;40530;53.062;6.078;2023-06-04T07:06:12;6.05;;;2.38;;
53971;SDS011;40530;53.062;6.078;2023-06-04T07:08:38;5.88;;;2.15;;
53971;SDS011;40530;53.062;6.078;2023-06-04T07:11:04;6.82;;;2.35;;
53971;SDS011;40530;53.062;6.078;2023-06-04T07:13:31;14.60;;;2.85;;
53971;SDS011;40530;53.062;6.078;2023-06-04T07:16:00;12.50;;;4.18;;
53971;SDS011;40530;53.062;6.078;2023-06-04T07:18:26;6.90;;;2.20;;
53971;SDS011;40530;53.062;6.078;2023-06-04T07:20:51;11.70;;;5.00;;
53971;SDS011;40530;53.062;6.078;2023-06-04T07:23:18;5.20;;;2.20;;
53971;SDS011;40530;53.062;6.078;2023-06-04T07:25:44;7.13;;;2.22;;
53971;SDS011;40530;53.062;6.078;2023-06-04T07:28:10;6.95;;;2.08;;
53971;SDS011;40530;53.062;6.078;2023-06-04T07:30:37;6.47;;;2.10;;
53971;SDS011;40530;53.062;6.078;2023-06-04T07:33:03;10.00;;;2.78;;
53971;SDS011;40530;53.062;6.078;2023-06-04T07:35:29;11.90;;;2.35;;
53971;SDS011;40530;53.062;6.078;2023-06-04T07:37:55;7.75;;;2.15;;
53971;SDS011;40530;53.062;6.078;2023-06-04T07:40:21;6.53;;;1.92;;
53971;SDS011;40530;53.062;6.078;2023-06-04T07:42:47;7.22;;;2.17;;
53971;SDS011;40530;53.062;6.078;2023-06-04T07:45:14;5.13;;;2.20;;
53971;SDS011;40530;53.062;6.078;2023-06-04T07:47:40;7.45;;;2.38;;
53971;SDS011;40530;53.062;6.078;2023-06-04T07:50:06;7.80;;;2.45;;
53971;SDS011;40530;53.062;6.078;2023-06-04T07:52:33;8.13;;;2.05;;
53971;SDS011;40530;53.062;6.078;2023-06-04T07:54:59;7.38;;;1.92;;
53971;SDS011;40530;53.062;6.078;2023-06-04T07:57:26;4.40;;;1.90;;
53971;SDS011;40530;53.062;6.078;2023-06-04T07:59:52;7.40;;;3.38;;
53971;SDS011;40530;53.062;6.078;2023-06-04T08:02:18;9.95;;;2.60;;
53971;SDS011;40530;53.062;6.078;2023-06-04T08:04:44;2.97;;;1.52;;
53971;SDS011;40530;53.062;6.078;2023-06-04T08:07:11;5.00;;;2.10;;
53971;SDS011;40530;53.062;6.078;2023-06-04T08:09:37;7.70;;;2.08;;
53971;SDS011;40530;53.062;6.078;2023-06-04T08:12:04;6.18;;;2.13;;
53971;SDS011;40530;53.062;6.078;2023-06-04T08:14:30;7.18;;;1.70;;
53971;SDS011;40530;53.062;6.078;2023-06-04T08:16:57;5.05;;;1.77;;
53971;SDS011;40530;53.062;6.078;2023-06-04T08:19:23;7.10;;;3.80;;
53971;SDS011;40530;53.062;6.078;2023-06-04T08:21:49;9.18;;;1.98;;
53971;SDS011;40530;53.062;6.078;2023-06-04T08:24:15;7.78;;;1.80;;
53971;SDS011;40530;53.062;6.078;2023-06-04T08:26:41;7.47;;;1.88;;
53971;SDS011;40530;53.062;6.078;2023-06-04T08:29:07;4.88;;;1.80;;
53971;SDS011;40530;53.062;6.078;2023-06-04T08:31:34;8.45;;;1.90;;
53971;SDS011;40530;53.062;6.078;2023-06-04T08:33:59;6.72;;;2.10;;
53971;SDS011;40530;53.062;6.078;2023-06-04T08:36:26;5.50;;;1.73;;
53971;SDS011;40530;53.062;6.078;2023-06-04T08:38:53;5.78;;;1.88;;
53971;SDS011;40530;53.062;6.078;2023-06-04T08:41:29;4.03;;;1.50;;
53971;SDS011;40530;53.062;6.078;2023-06-04T08:43:56;5.97;;;1.75;;
53971;SDS011;40530;53.062;6.078;2023-06-04T08:46:26;4.57;;;1.48;;
53971;SDS011;40530;53.062;6.078;2023-06-04T08:48:52;5.78;;;1.77;;
53971;SDS011;40530;53.062;6.078;2023-06-04T08:51:21;5.97;;;1.58;;
53971;SDS011;40530;53.062;6.078;2023-06-04T08:53:47;5.82;;;1.55;;
53971;SDS011;40530;53.062;6.078;2023-06-04T08:56:19;5.30;;;1.27;;
53971;SDS011;40530;53.062;6.078;2023-06-04T08:58:47;3.50;;;1.70;;
53971;SDS011;40530;53.062;6.078;2023-06-04T09:01:13;4.60;;;1.83;;
53971;SDS011;40530;53.062;6.078;2023-06-04T09:03:40;3.22;;;1.52;;
53971;SDS011;40530;53.062;6.078;2023-06-04T09:06:06;6.25;;;1.65;;
53971;SDS011;40530;53.062;6.078;2023-06-04T09:08:35;3.25;;;1.33;;
53971;SDS011;40530;53.062;6.078;2023-06-04T09:11:07;2.95;;;1.50;;
53971;SDS011;40530;53.062;6.078;2023-06-04T09:13:33;4.33;;;1.30;;
53971;SDS011;40530;53.062;6.078;2023-06-04T09:16:01;5.95;;;1.48;;
53971;SDS011;40530;53.062;6.078;2023-06-04T09:18:27;3.20;;;1.35;;
53971;SDS011;40530;53.062;6.078;2023-06-04T09:23:28;6.35;;;1.27;;
53971;SDS011;40530;53.062;6.078;2023-06-04T09:25:55;3.72;;;1.63;;
53971;SDS011;40530;53.062;6.078;2023-06-04T09:28:21;4.43;;;1.40;;
53971;SDS011;40530;53.062;6.078;2023-06-04T09:30:51;3.38;;;1.52;;
53971;SDS011;40530;53.062;6.078;2023-06-04T09:33:17;6.53;;;1.55;;
53971;SDS011;40530;53.062;6.078;2023-06-04T09:35:52;4.47;;;1.70;;
53971;SDS011;40530;53.062;6.078;2023-06-04T09:38:19;4.18;;;1.33;;
53971;SDS011;40530;53.062;6.078;2023-06-04T09:40:45;4.20;;;1.60;;
53971;SDS011;40530;53.062;6.078;2023-06-04T09:43:20;3.78;;;1.77;;
53971;SDS011;40530;53.062;6.078;2023-06-04T09:45:47;5.15;;;1.40;;
53971;SDS011;40530;53.062;6.078;2023-06-04T09:48:19;6.25;;;1.83;;
53971;SDS011;40530;53.062;6.078;2023-06-04T09:50:48;5.00;;;1.60;;
53971;SDS011;40530;53.062;6.078;2023-06-04T09:53:18;5.40;;;2.05;;
53971;SDS011;40530;53.062;6.078;2023-06-04T09:55:57;4.47;;;1.40;;
53971;SDS011;40530;53.062;6.078;2023-06-04T09:58:27;3.13;;;1.40;;
53971;SDS011;40530;53.062;6.078;2023-06-04T10:00:56;4.50;;;1.50;;
53971;SDS011;40530;53.062;6.078;2023-06-04T10:03:29;3.42;;;1.77;;
53971;SDS011;40530;53.062;6.078;2023-06-04T10:05:56;4.22;;;1.65;;
53971;SDS011;40530;53.062;6.078;2023-06-04T10:08:23;3.33;;;1.38;;
53971;SDS011;40530;53.062;6.078;2023-06-04T10:10:53;3.58;;;1.60;;
53971;SDS011;40530;53.062;6.078;2023-06-04T10:15:46;5.32;;;1.38;;
53971;SDS011;40530;53.062;6.078;2023-06-04T10:18:15;2.85;;;1.30;;
53971;SDS011;40530;53.062;6.078;2023-06-04T10:20:41;4.13;;;1.83;;
53971;SDS011;40530;53.062;6.078;2023-06-04T10:23:08;4.90;;;1.92;;
53971;SDS011;40530;53.062;6.078;2023-06-04T10:25:34;4.05;;;1.27;;
53971;SDS011;40530;53.062;6.078;2023-06-04T10:28:01;4.03;;;1.35;;
53971;SDS011;40530;53.062;6.078;2023-06-04T10:30:28;1.55;;;1.10;;
53971;SDS011;40530;53.062;6.078;2023-06-04T10:32:55;2.78;;;1.20;;
53971;SDS011;40530;53.062;6.078;2023-06-04T10:35:31;4.38;;;1.40;;
53971;SDS011;40530;53.062;6.078;2023-06-04T10:38:10;2.40;;;1.20;;
53971;SDS011;40530;53.062;6.078;2023-06-04T10:40:38;3.95;;;1.33;;
53971;SDS011;40530;53.062;6.078;2023-06-04T10:43:05;3.58;;;1.15;;
53971;SDS011;40530;53.062;6.078;2023-06-04T10:45:31;5.57;;;1.00;;
53971;SDS011;40530;53.062;6.078;2023-06-04T10:48:04;2.30;;;1.13;;
53971;SDS011;40530;53.062;6.078;2023-06-04T10:53:20;2.70;;;1.20;;
53971;SDS011;40530;53.062;6.078;2023-06-04T10:55:47;4.03;;;1.73;;
53971;SDS011;40530;53.062;6.078;2023-06-04T10:58:14;9.93;;;3.65;;
53971;SDS011;40530;53.062;6.078;2023-06-04T11:00:44;3.80;;;1.73;;
53971;SDS011;40530;53.062;6.078;2023-06-04T11:03:14;4.90;;;1.70;;
53971;SDS011;40530;53.062;6.078;2023-06-04T11:05:41;4.03;;;1.55;;
53971;SDS011;40530;53.062;6.078;2023-06-04T11:08:08;4.45;;;1.58;;
53971;SDS011;40530;53.062;6.078;2023-06-04T11:10:39;5.03;;;1.50;;
53971;SDS011;40530;53.062;6.078;2023-06-04T11:13:06;5.28;;;1.50;;
53971;SDS011;40530;53.062;6.078;2023-06-04T11:15:41;3.58;;;1.92;;
53971;SDS011;40530;53.062;6.078;2023-06-04T11:18:08;3.97;;;1.50;;
53971;SDS011;40530;53.062;6.078;2023-06-04T11:20:34;4.25;;;1.30;;
53971;SDS011;40530;53.062;6.078;2023-06-04T11:23:00;4.32;;;1.63;;
53971;SDS011;40530;53.062;6.078;2023-06-04T11:25:28;3.97;;;1.50;;
53971;SDS011;40530;53.062;6.078;2023-06-04T11:27:55;3.05;;;1.00;;
53971;SDS011;40530;53.062;6.078;2023-06-04T11:30:23;1.95;;;1.00;;
53971;SDS011;40530;53.062;6.078;2023-06-04T11:32:49;2.78;;;1.30;;
53971;SDS011;40530;53.062;6.078;2023-06-04T11:35:15;3.08;;;1.50;;
53971;SDS011;40530;53.062;6.078;2023-06-04T11:37:41;3.15;;;1.30;;
53971;SDS011;40530;53.062;6.078;2023-06-04T11:40:17;3.65;;;1.60;;
53971;SDS011;40530;53.062;6.078;2023-06-04T11:42:43;5.10;;;1.75;;
53971;SDS011;40530;53.062;6.078;2023-06-04T11:45:12;2.70;;;1.05;;
53971;SDS011;40530;53.062;6.078;2023-06-04T11:47:38;5.05;;;1.88;;
53971;SDS011;40530;53.062;6.078;2023-06-04T11:50:04;4.78;;;1.35;;
53971;SDS011;40530;53.062;6.078;2023-06-04T11:52:30;3.35;;;1.52;;
53971;SDS011;40530;53.062;6.078;2023-06-04T11:54:57;4.00;;;1.55;;
53971;SDS011;40530;53.062;6.078;2023-06-04T11:57:23;3.75;;;1.55;;
53971;SDS011;40530;53.062;6.078;2023-06-04T11:59:49;5.22;;;1.23;;
53971;SDS011;40530;53.062;6.078;2023-06-04T12:02:15;5.45;;;1.45;;
53971;SDS011;40530;53.062;6.078;2023-06-04T12:04:41;8.63;;;1.65;;
53971;SDS011;40530;53.062;6.078;2023-06-04T12:07:07;5.53;;;1.40;;
53971;SDS011;40530;53.062;6.078;2023-06-04T12:09:34;3.05;;;1.30;;
53971;SDS011;40530;53.062;6.078;2023-06-04T12:12:03;4.43;;;1.45;;
53971;SDS011;40530;53.062;6.078;2023-06-04T12:14:29;4.15;;;1.58;;
53971;SDS011;40530;53.062;6.078;2023-06-04T12:17:08;4.15;;;2.15;;
53971;SDS011;40530;53.062;6.078;2023-06-04T12:19:47;4.35;;;1.63;;
53971;SDS011;40530;53.062;6.078;2023-06-04T12:22:13;4.95;;;1.63;;
53971;SDS011;40530;53.062;6.078;2023-06-04T12:24:46;3.80;;;1.67;;
53971;SDS011;40530;53.062;6.078;2023-06-04T12:27:14;1.60;;;1.13;;
53971;SDS011;40530;53.062;6.078;2023-06-04T12:29:40;4.07;;;1.70;;
53971;SDS011;40530;53.062;6.078;2023-06-04T12:32:07;3.00;;;1.40;;
53971;SDS011;40530;53.062;6.078;2023-06-04T12:34:36;4.93;;;1.38;;
53971;SDS011;40530;53.062;6.078;2023-06-04T12:37:02;4.18;;;1.38;;
53971;SDS011;40530;53.062;6.078;2023-06-04T12:39:30;11.93;;;5.93;;
53971;SDS011;40530;53.062;6.078;2023-06-04T12:41:56;5.47;;;3.08;;
53971;SDS011;40530;53.062;6.078;2023-06-04T12:44:22;3.05;;;1.60;;
53971;SDS011;40530;53.062;6.078;2023-06-04T12:46:50;3.67;;;1.50;;
53971;SDS011;40530;53.062;6.078;2023-06-04T12:49:16;9.10;;;1.40;;
53971;SDS011;40530;53.062;6.078;2023-06-04T12:51:42;4.03;;;1.77;;
53971;SDS011;40530;53.062;6.078;2023-06-04T12:54:09;4.68;;;1.33;;
53971;SDS011;40530;53.062;6.078;2023-06-04T12:56:36;3.75;;;1.25;;
53971;SDS011;40530;53.062;6.078;2023-06-04T12:59:02;2.90;;;1.30;;
53971;SDS011;40530;53.062;6.078;2023-06-04T13:01:28;14.20;;;10.30;;
53971;SDS011;40530;53.062;6.078;2023-06-04T13:03:54;7.03;;;1.80;;
53971;SDS011;40530;53.062;6.078;2023-06-04T13:06:20;6.10;;;1.60;;
53971;SDS011;40530;53.062;6.078;2023-06-04T13:08:46;5.10;;;1.25;;
53971;SDS011;40530;53.062;6.078;2023-06-04T13:11:12;4.40;;;1.20;;
53971;SDS011;40530;53.062;6.078;2023-06-04T13:13:38;3.88;;;1.30;;
53971;SDS011;40530;53.062;6.078;2023-06-04T13:16:04;3.88;;;2.00;;
53971;SDS011;40530;53.062;6.078;2023-06-04T13:18:30;3.53;;;1.10;;
53971;SDS011;40530;53.062;6.078;2023-06-04T13:20:56;6.50;;;1.30;;
53971;SDS011;40530;53.062;6.078;2023-06-04T13:23:22;3.75;;;1.35;;
53971;SDS011;40530;53.062;6.078;2023-06-04T13:25:48;3.33;;;1.25;;
53971;SDS011;40530;53.062;6.078;2023-06-04T13:28:14;3.85;;;1.17;;
53971;SDS011;40530;53.062;6.078;2023-06-04T13:30:42;2.95;;;1.27;;
53971;SDS011;40530;53.062;6.078;2023-06-04T13:33:08;4.28;;;1.35;;
53971;SDS011;40530;53.062;6.078;2023-06-04T13:35:34;2.80;;;1.23;;
53971;SDS011;40530;53.062;6.078;2023-06-04T13:38:01;2.45;;;1.20;;
53971;SDS011;40530;53.062;6.078;2023-06-04T13:40:27;4.43;;;1.40;;
53971;SDS011;40530;53.062;6.078;2023-06-04T13:42:54;1.80;;;1.13;;
53971;SDS011;40530;53.062;6.078;2023-06-04T13:45:20;2.95;;;1.00;;
53971;SDS011;40530;53.062;6.078;2023-06-04T13:47:49;18.15;;;1.60;;
53971;SDS011;40530;53.062;6.078;2023-06-04T13:50:15;9.38;;;4.03;;
53971;SDS011;40530;53.062;6.078;2023-06-04T13:52:41;5.43;;;2.72;;
53971;SDS011;40530;53.062;6.078;2023-06-04T13:55:07;4.13;;;1.25;;
53971;SDS011;40530;53.062;6.078;2023-06-04T13:57:33;8.23;;;1.40;;
53971;SDS011;40530;53.062;6.078;2023-06-04T13:59:59;4.00;;;1.60;;
53971;SDS011;40530;53.062;6.078;2023-06-04T14:02:26;3.33;;;1.20;;
53971;SDS011;40530;53.062;6.078;2023-06-04T14:04:52;2.55;;;1.17;;
53971;SDS011;40530;53.062;6.078;2023-06-04T14:07:19;2.22;;;1.10;;
53971;SDS011;40530;53.062;6.078;2023-06-04T14:09:46;6.35;;;1.70;;
53971;SDS011;40530;53.062;6.078;2023-06-04T14:12:13;3.25;;;1.20;;
53971;SDS011;40530;53.062;6.078;2023-06-04T14:14:43;5.63;;;1.38;;
53971;SDS011;40530;53.062;6.078;2023-06-04T14:17:09;2.88;;;1.42;;
53971;SDS011;40530;53.062;6.078;2023-06-04T14:19:35;5.55;;;3.88;;
53971;SDS011;40530;53.062;6.078;2023-06-04T14:22:04;2.28;;;1.38;;
53971;SDS011;40530;53.062;6.078;2023-06-04T14:24:30;3.83;;;1.48;;
53971;SDS011;40530;53.062;6.078;2023-06-04T14:26:56;2.60;;;1.27;;
53971;SDS011;40530;53.062;6.078;2023-06-04T14:29:22;3.35;;;1.10;;
53971;SDS011;40530;53.062;6.078;2023-06-04T14:31:48;3.70;;;1.20;;
53971;SDS011;40530;53.062;6.078;2023-06-04T14:34:14;5.15;;;1.50;;
53971;SDS011;40530;53.062;6.078;2023-06-04T14:36:40;1.73;;;0.93;;
53971;SDS011;40530;53.062;6.078;2023-06-04T14:39:06;1.95;;;1.10;;
53971;SDS011;40530;53.062;6.078;2023-06-04T14:41:32;3.60;;;1.40;;
53971;SDS011;40530;53.062;6.078;2023-06-04T14:43:59;2.60;;;1.10;;
53971;SDS011;40530;53.062;6.078;2023-06-04T14:46:25;3.03;;;1.30;;
53971;SDS011;40530;53.062;6.078;2023-06-04T14:48:51;6.55;;;1.40;;
53971;SDS011;40530;53.062;6.078;2023-06-04T14:51:18;3.10;;;1.00;;